createdAt,value
2022-10-20T00:01:23.685Z,13.04
2022-10-20T00:03:53.061Z,12.96
2022-10-20T00:06:24.681Z,13.04
2022-10-20T00:08:53.901Z,12.99
2022-10-20T00:11:24.506Z,13.09
2022-10-20T00:13:56.121Z,13.09
2022-10-20T00:16:26.188Z,13.06
2022-10-20T00:18:54.879Z,12.89
2022-10-20T00:21:28.570Z,12.69
2022-10-20T00:24:00.105Z,12.64
2022-10-20T00:26:30.018Z,12.56
2022-10-20T00:28:58.941Z,12.61
2022-10-20T00:31:27.659Z,12.64
2022-10-20T00:33:56.108Z,12.59
2022-10-20T00:36:26.233Z,12.66
2022-10-20T00:38:59.425Z,12.61
2022-10-20T00:41:28.479Z,12.70
2022-10-20T00:43:59.290Z,12.79
2022-10-20T00:46:31.935Z,12.75
2022-10-20T00:49:03.838Z,12.76
2022-10-20T00:51:35.269Z,12.84
2022-10-20T00:54:09.031Z,12.88
2022-10-20T00:56:40.152Z,12.85
2022-10-20T00:59:09.408Z,12.84
2022-10-20T01:01:39.114Z,12.83
2022-10-20T01:04:07.932Z,12.76
2022-10-20T01:06:38.256Z,12.66
2022-10-20T01:09:07.579Z,12.59
2022-10-20T01:11:43.358Z,12.54
2022-10-20T01:14:24.182Z,12.36
2022-10-20T01:17:03.282Z,12.37
2022-10-20T01:20:04.472Z,12.26
2022-10-20T01:22:47.832Z,12.25
2022-10-20T01:25:24.207Z,12.23
2022-10-20T01:27:56.991Z,12.34
2022-10-20T01:30:28.381Z,12.35
2022-10-20T01:33:11.106Z,12.36
2022-10-20T01:35:55.269Z,12.30
2022-10-20T01:38:29.960Z,12.43
2022-10-20T01:41:04.462Z,12.45
2022-10-20T01:43:37.368Z,12.46
2022-10-20T01:46:09.317Z,12.60
2022-10-20T01:48:40.414Z,12.73
2022-10-20T01:51:11.253Z,12.86
2022-10-20T01:53:40.154Z,13.03
2022-10-20T01:56:17.386Z,13.09
2022-10-20T01:59:12.985Z,13.16
2022-10-20T02:02:01.645Z,13.23
2022-10-20T02:04:36.440Z,13.17
2022-10-20T02:07:10.438Z,13.06
2022-10-20T02:09:42.291Z,12.89
2022-10-20T02:12:14.867Z,12.96
2022-10-20T02:14:45.393Z,12.90
2022-10-20T02:17:16.889Z,12.98
2022-10-20T02:19:47.196Z,13.08
2022-10-20T02:22:17.796Z,13.18
2022-10-20T02:24:46.958Z,13.17
2022-10-20T02:27:18.190Z,13.27
2022-10-20T02:29:53.381Z,13.39
2022-10-20T02:32:22.794Z,13.38
2022-10-20T02:34:51.268Z,13.48
2022-10-20T02:37:19.975Z,13.56
2022-10-20T02:39:51.824Z,13.48
2022-10-20T02:42:20.296Z,13.88
2022-10-20T02:44:50.227Z,13.86
2022-10-20T02:47:21.143Z,13.80
2022-10-20T02:49:49.961Z,13.86
2022-10-20T02:52:18.387Z,13.93
2022-10-20T02:54:46.859Z,14.02
2022-10-20T02:57:15.278Z,14.14
2022-10-20T02:59:44.050Z,14.25
2022-10-20T03:02:13.985Z,14.28
2022-10-20T03:04:42.402Z,14.19
2022-10-20T03:07:10.920Z,14.30
2022-10-20T03:09:39.423Z,14.29
2022-10-20T03:12:07.953Z,14.48
2022-10-20T03:14:36.430Z,14.43
2022-10-20T03:17:04.944Z,14.59
2022-10-20T03:19:34.746Z,14.63
2022-10-20T03:22:03.197Z,14.67
2022-10-20T03:24:31.640Z,14.81
2022-10-20T03:27:00.289Z,14.82
2022-10-20T03:29:28.711Z,14.94
2022-10-20T03:31:57.348Z,15.05
2022-10-20T03:34:26.166Z,15.03
2022-10-20T03:36:56.064Z,15.13
2022-10-20T03:39:24.978Z,15.16
2022-10-20T03:41:53.454Z,15.18
2022-10-20T03:44:22.716Z,15.14
2022-10-20T03:46:51.270Z,15.19
2022-10-20T03:49:19.721Z,15.22
2022-10-20T03:51:48.111Z,15.32
2022-10-20T03:54:17.993Z,15.32
2022-10-20T03:56:46.446Z,15.33
2022-10-20T03:59:14.873Z,15.53
2022-10-20T04:01:46.682Z,15.58
2022-10-20T04:04:15.468Z,15.61
2022-10-20T04:06:43.915Z,15.60
2022-10-20T04:09:12.442Z,15.69
2022-10-20T04:11:42.270Z,15.73
2022-10-20T04:14:10.773Z,15.73
2022-10-20T04:16:39.236Z,15.75
2022-10-20T04:19:07.680Z,15.68
2022-10-20T04:21:38.368Z,15.80
2022-10-20T04:24:07.851Z,15.58
2022-10-20T04:26:59.608Z,15.83
2022-10-20T04:29:28.369Z,15.82
2022-10-20T04:32:04.393Z,15.65
2022-10-20T04:34:34.045Z,15.81
2022-10-20T04:37:02.474Z,15.83
2022-10-20T04:39:30.953Z,15.77
2022-10-20T04:42:01.018Z,15.92
2022-10-20T04:44:29.411Z,15.81
2022-10-20T04:46:57.956Z,15.86
2022-10-20T04:49:26.463Z,15.84
2022-10-20T04:52:00.712Z,15.83
2022-10-20T04:54:29.607Z,15.77
2022-10-20T04:56:58.229Z,15.76
2022-10-20T04:59:28.381Z,15.85
2022-10-20T05:05:00.015Z,15.79
2022-10-20T05:07:31.313Z,15.74
2022-10-20T05:09:59.757Z,15.73
2022-10-20T05:12:28.907Z,15.71
2022-10-20T05:14:59.137Z,15.73
2022-10-20T05:17:31.374Z,15.63
2022-10-20T05:20:00.227Z,15.64
2022-10-20T05:22:28.663Z,15.64
2022-10-20T05:25:03.980Z,15.59
2022-10-20T05:27:42.226Z,15.58
2022-10-20T05:30:12.998Z,15.56
2022-10-20T05:32:41.402Z,15.55
2022-10-20T05:35:10.376Z,15.56
2022-10-20T05:37:39.115Z,15.54
2022-10-20T05:40:09.372Z,15.61
2022-10-20T05:42:38.251Z,15.72
2022-10-20T05:45:08.228Z,15.86
2022-10-20T05:47:38.095Z,15.85
2022-10-20T05:50:07.182Z,15.80
2022-10-20T05:52:36.856Z,15.80
2022-10-20T05:55:06.394Z,15.83
2022-10-20T05:57:34.844Z,15.84
2022-10-20T06:00:03.465Z,15.86
2022-10-20T06:02:41.553Z,15.88
2022-10-20T06:05:10.361Z,15.75
2022-10-20T06:07:38.799Z,15.93
2022-10-20T06:10:07.760Z,15.98
2022-10-20T06:12:37.250Z,16.00
2022-10-20T06:15:06.830Z,16.03
2022-10-20T06:17:35.291Z,16.20
2022-10-20T06:20:05.630Z,16.42
2022-10-20T06:22:34.307Z,16.51
2022-10-20T06:25:03.085Z,16.61
2022-10-20T06:27:31.517Z,16.64
2022-10-20T06:29:59.946Z,16.63
2022-10-20T06:32:28.371Z,16.59
2022-10-20T06:34:56.796Z,16.51
2022-10-20T06:37:26.681Z,16.53
2022-10-20T06:39:55.122Z,16.35
2022-10-20T06:42:23.671Z,16.20
2022-10-20T06:44:55.728Z,16.19
2022-10-20T06:47:24.201Z,16.17
2022-10-20T06:49:52.645Z,16.14
2022-10-20T06:52:24.870Z,16.15
2022-10-20T06:54:54.952Z,16.14
2022-10-20T06:57:44.543Z,16.09
2022-10-20T07:00:16.286Z,16.45
2022-10-20T07:02:45.006Z,16.59
2022-10-20T07:05:17.037Z,16.53
2022-10-20T07:07:45.569Z,16.72
2022-10-20T07:10:15.440Z,16.80
2022-10-20T07:12:44.158Z,17.06
2022-10-20T07:15:12.802Z,17.36
2022-10-20T07:17:41.251Z,17.41
2022-10-20T07:20:10.619Z,17.44
2022-10-20T07:22:39.469Z,17.44
2022-10-20T07:25:09.443Z,17.49
2022-10-20T07:27:39.364Z,17.40
2022-10-20T07:30:08.713Z,17.42
2022-10-20T07:32:37.818Z,17.32
2022-10-20T07:35:08.107Z,17.45
2022-10-20T07:37:36.779Z,17.58
2022-10-20T07:40:06.434Z,17.64
2022-10-20T07:42:35.687Z,17.77
2022-10-20T07:45:06.656Z,17.80
2022-10-20T07:47:38.305Z,17.89
2022-10-20T07:50:09.125Z,17.92
2022-10-20T07:52:38.848Z,18.00
2022-10-20T07:55:31.921Z,18.01
2022-10-20T07:57:56.583Z,18.24
2022-10-20T08:00:26.439Z,18.38
2022-10-20T08:02:55.184Z,18.58
2022-10-20T08:05:23.904Z,18.68
2022-10-20T08:07:52.450Z,18.70
2022-10-20T08:10:20.933Z,18.74
2022-10-20T08:12:49.419Z,18.80
2022-10-20T08:15:18.082Z,18.87
2022-10-20T08:17:47.915Z,18.98
2022-10-20T08:20:16.609Z,19.13
2022-10-20T08:22:45.029Z,19.33
2022-10-20T08:25:15.969Z,19.54
2022-10-20T08:27:44.440Z,19.92
2022-10-20T08:30:23.545Z,20.48
2022-10-20T08:32:54.370Z,21.02
2022-10-20T08:35:23.557Z,20.84
2022-10-20T08:37:52.462Z,20.51
2022-10-20T08:40:24.290Z,20.07
2022-10-20T08:42:53.822Z,20.26
2022-10-20T08:45:25.294Z,20.05
2022-10-20T08:47:58.884Z,19.90
2022-10-20T08:50:30.650Z,19.95
2022-10-20T08:53:01.463Z,20.53
2022-10-20T08:55:32.722Z,21.03
2022-10-20T08:58:04.565Z,21.22
2022-10-20T09:00:34.437Z,22.09
2022-10-20T09:03:27.786Z,22.70
2022-10-20T09:06:00.764Z,22.80
2022-10-20T09:08:32.706Z,22.97
2022-10-20T09:11:03.280Z,23.84
2022-10-20T09:13:34.444Z,23.83
2022-10-20T09:16:06.958Z,23.62
2022-10-20T09:18:36.990Z,23.29
2022-10-20T09:21:08.523Z,23.85
2022-10-20T09:23:42.257Z,23.28
2022-10-20T09:26:30.334Z,23.72
2022-10-20T09:29:13.393Z,24.48
2022-10-20T09:31:44.922Z,24.91
2022-10-20T09:34:26.511Z,25.86
2022-10-20T09:36:59.694Z,25.19
2022-10-20T09:39:31.416Z,25.62
2022-10-20T09:42:04.276Z,24.95
2022-10-20T09:44:35.308Z,24.59
2022-10-20T09:47:03.951Z,24.77
2022-10-20T09:49:36.499Z,24.67
2022-10-20T09:52:15.658Z,23.13
2022-10-20T09:54:48.318Z,22.67
2022-10-20T09:57:19.927Z,21.72
2022-10-20T09:59:52.033Z,21.68
2022-10-20T10:02:33.135Z,21.44
2022-10-20T10:05:20.033Z,21.50
2022-10-20T10:07:59.619Z,21.29
2022-10-20T10:10:30.288Z,21.72
2022-10-20T10:13:02.790Z,21.78
2022-10-20T10:15:34.211Z,21.66
2022-10-20T10:18:14.190Z,21.30
2022-10-20T10:20:44.941Z,21.38
2022-10-20T10:23:26.064Z,21.04
2022-10-20T10:25:59.207Z,20.83
2022-10-20T10:28:35.158Z,20.90
2022-10-20T10:31:11.084Z,20.76
2022-10-20T10:33:39.625Z,20.77
2022-10-20T10:36:16.302Z,20.83
2022-10-20T10:38:44.891Z,21.08
2022-10-20T10:41:22.831Z,21.69
2022-10-20T10:43:59.839Z,21.25
2022-10-20T10:46:36.974Z,21.28
2022-10-20T10:49:23.669Z,20.99
2022-10-20T10:52:06.473Z,20.90
2022-10-20T10:54:49.163Z,20.71
2022-10-20T10:57:27.959Z,20.77
2022-10-20T11:00:00.020Z,20.68
2022-10-20T11:02:58.289Z,20.62
2022-10-20T11:05:47.957Z,20.59
2022-10-20T11:08:29.758Z,20.97
2022-10-20T11:11:09.387Z,21.46
2022-10-20T11:13:44.518Z,22.49
2022-10-20T11:16:25.931Z,23.52
2022-10-20T11:19:22.205Z,23.06
2022-10-20T11:22:05.228Z,22.61
2022-10-20T11:24:49.262Z,22.50
2022-10-20T11:27:20.590Z,22.17
2022-10-20T11:29:52.376Z,22.10
2022-10-20T11:32:29.827Z,22.21
2022-10-20T11:35:04.533Z,22.25
2022-10-20T11:37:39.308Z,22.28
2022-10-20T11:40:22.837Z,22.31
2022-10-20T11:42:58.538Z,22.47
2022-10-20T11:45:35.774Z,21.92
2022-10-20T11:48:12.679Z,21.80
2022-10-20T11:50:43.579Z,22.09
2022-10-20T11:53:32.243Z,22.08
2022-10-20T11:56:35.369Z,21.92
2022-10-20T11:59:38.493Z,22.04
2022-10-20T12:02:29.618Z,21.86
2022-10-20T12:05:17.734Z,21.69
2022-10-20T12:08:28.670Z,21.37
2022-10-20T12:11:06.246Z,21.18
2022-10-20T12:13:47.605Z,20.98
2022-10-20T12:16:49.097Z,20.84
2022-10-20T12:19:19.345Z,20.82
2022-10-20T12:21:58.024Z,20.91
2022-10-20T12:24:38.219Z,20.66
2022-10-20T12:27:19.315Z,20.40
2022-10-20T12:30:27.700Z,20.12
2022-10-20T12:33:16.998Z,19.86
2022-10-20T12:36:13.755Z,19.54
2022-10-20T12:38:43.279Z,19.53
2022-10-20T12:41:26.914Z,19.53
2022-10-20T12:44:00.814Z,19.44
2022-10-20T12:46:32.664Z,19.35
2022-10-20T12:49:08.110Z,19.24
2022-10-20T12:51:49.137Z,19.18
2022-10-20T12:54:25.006Z,19.24
2022-10-20T12:56:56.941Z,19.28
2022-10-20T12:59:46.657Z,19.36
2022-10-20T13:02:34.539Z,19.36
2022-10-20T13:05:24.680Z,19.34
2022-10-20T13:08:27.990Z,18.99
2022-10-20T13:10:58.348Z,18.59
2022-10-20T13:14:00.003Z,17.88
2022-10-20T13:16:34.126Z,17.59
2022-10-20T13:19:08.820Z,17.37
2022-10-20T13:21:37.686Z,17.20
2022-10-20T13:24:14.942Z,16.88
2022-10-20T13:26:51.827Z,16.85
2022-10-20T13:29:28.373Z,16.83
2022-10-20T13:32:06.841Z,16.83
2022-10-20T13:34:43.826Z,16.78
2022-10-20T13:37:23.971Z,16.89
2022-10-20T13:40:03.983Z,16.88
2022-10-20T13:42:43.359Z,16.78
2022-10-20T13:45:19.938Z,16.78
2022-10-20T13:47:52.196Z,16.80
2022-10-20T13:50:28.219Z,16.91
2022-10-20T13:53:00.643Z,17.05
2022-10-20T13:55:31.574Z,17.24
2022-10-20T13:58:07.937Z,17.22
2022-10-20T14:00:36.785Z,17.45
2022-10-20T14:03:17.114Z,17.29
2022-10-20T14:05:47.008Z,17.59
2022-10-20T14:08:21.252Z,17.37
2022-10-20T14:10:55.249Z,17.51
2022-10-20T14:13:26.711Z,17.61
2022-10-20T14:15:57.796Z,17.65
2022-10-20T14:18:28.733Z,17.87
2022-10-20T14:21:03.402Z,17.94
2022-10-20T14:23:36.098Z,17.99
2022-10-20T14:26:05.823Z,17.93
2022-10-20T14:28:37.245Z,18.20
2022-10-20T14:31:06.742Z,18.45
2022-10-20T14:33:37.909Z,18.85
2022-10-20T14:36:08.318Z,19.32
2022-10-20T14:38:39.218Z,19.42
2022-10-20T14:41:09.797Z,19.71
2022-10-20T14:43:41.819Z,19.84
2022-10-20T14:46:13.001Z,20.14
2022-10-20T14:48:46.185Z,20.28
2022-10-20T14:51:45.213Z,20.40
2022-10-20T14:54:37.107Z,20.08
2022-10-20T14:57:31.608Z,20.41
2022-10-20T15:00:04.151Z,20.43
2022-10-20T15:02:38.577Z,20.29
2022-10-20T15:05:25.026Z,20.28
2022-10-20T15:07:55.345Z,20.15
2022-10-20T15:10:26.210Z,20.21
2022-10-20T15:12:56.550Z,20.29
2022-10-20T15:15:27.907Z,20.42
2022-10-20T15:18:14.815Z,20.45
2022-10-20T15:20:45.273Z,20.49
2022-10-20T15:23:16.769Z,20.34
2022-10-20T15:25:50.557Z,20.32
2022-10-20T15:28:38.103Z,20.16
2022-10-20T15:31:08.492Z,20.11
2022-10-20T15:33:36.963Z,20.24
2022-10-20T15:36:13.501Z,20.11
2022-10-20T15:38:43.329Z,20.01
2022-10-20T15:41:15.032Z,20.19
2022-10-20T15:43:43.557Z,19.99
2022-10-20T15:46:14.142Z,20.06
2022-10-20T15:48:43.500Z,20.06
2022-10-20T15:51:16.539Z,19.85
2022-10-20T15:53:48.856Z,19.99
2022-10-20T15:56:17.517Z,20.06
2022-10-20T15:58:46.032Z,20.15
2022-10-20T16:01:17.158Z,19.86
2022-10-20T16:03:46.089Z,19.71
2022-10-20T16:06:15.841Z,19.71
2022-10-20T16:08:47.326Z,19.82
2022-10-20T16:11:17.791Z,19.48
2022-10-20T16:13:46.392Z,19.47
2022-10-20T16:16:17.561Z,19.39
2022-10-20T16:18:46.501Z,19.51
2022-10-20T16:21:15.068Z,19.54
2022-10-20T16:23:44.921Z,19.38
2022-10-20T16:26:15.960Z,19.45
2022-10-20T16:28:44.791Z,19.38
2022-10-20T16:31:15.059Z,19.58
2022-10-20T16:33:44.513Z,19.61
2022-10-20T16:36:14.853Z,19.71
2022-10-20T16:38:43.870Z,19.50
2022-10-20T16:41:15.824Z,19.57
2022-10-20T16:43:46.116Z,19.68
2022-10-20T16:46:16.340Z,19.56
2022-10-20T16:48:48.019Z,19.49
2022-10-20T16:51:17.442Z,19.60
2022-10-20T16:53:45.900Z,19.46
2022-10-20T16:56:19.836Z,19.41
2022-10-20T16:58:50.006Z,19.22
2022-10-20T17:01:20.865Z,19.38
2022-10-20T17:03:51.008Z,19.13
2022-10-20T17:06:21.242Z,19.18
2022-10-20T17:08:49.879Z,19.04
2022-10-20T17:11:21.978Z,18.93
2022-10-20T17:13:51.053Z,19.02
2022-10-20T17:16:24.800Z,18.91
2022-10-20T17:18:56.830Z,19.10
2022-10-20T17:21:25.426Z,19.10
2022-10-20T17:23:53.859Z,19.14
2022-10-20T17:26:26.488Z,18.97
2022-10-20T17:28:56.236Z,19.08
2022-10-20T17:31:25.252Z,19.06
2022-10-20T17:33:55.013Z,18.85
2022-10-20T17:36:26.257Z,18.81
2022-10-20T17:38:57.405Z,18.81
2022-10-20T17:41:27.613Z,18.52
2022-10-20T17:43:56.184Z,18.68
2022-10-20T17:46:24.694Z,18.72
2022-10-20T17:48:53.507Z,18.67
2022-10-20T17:51:26.850Z,18.51
2022-10-20T17:53:58.165Z,18.49
2022-10-20T17:56:31.481Z,18.59
2022-10-20T17:59:03.086Z,18.32
2022-10-20T18:01:38.356Z,18.24
2022-10-20T18:04:09.477Z,18.42
2022-10-20T18:06:39.260Z,18.03
2022-10-20T18:09:10.976Z,18.52
2022-10-20T18:11:44.651Z,18.45
2022-10-20T18:14:13.217Z,18.50
2022-10-20T18:16:43.808Z,18.39
2022-10-20T18:19:15.683Z,18.38
2022-10-20T18:21:44.832Z,18.47
2022-10-20T18:24:15.170Z,18.57
2022-10-20T18:26:45.573Z,18.50
2022-10-20T18:29:15.481Z,18.39
2022-10-20T18:31:45.701Z,18.32
2022-10-20T18:34:17.383Z,18.36
2022-10-20T18:36:46.305Z,18.33
2022-10-20T18:39:16.286Z,18.36
2022-10-20T18:41:46.616Z,18.38
2022-10-20T18:44:16.906Z,18.38
2022-10-20T18:46:47.836Z,18.31
2022-10-20T18:49:20.649Z,18.33
2022-10-20T18:51:50.082Z,18.34
2022-10-20T18:54:19.695Z,18.38
2022-10-20T18:56:49.565Z,18.42
2022-10-20T18:59:18.044Z,18.51
2022-10-20T19:01:48.467Z,18.37
2022-10-20T19:04:17.390Z,18.40
2022-10-20T19:06:49.790Z,18.35
2022-10-20T19:09:21.002Z,18.31
2022-10-20T19:11:51.587Z,18.14
2022-10-20T19:14:20.099Z,18.12
2022-10-20T19:16:50.107Z,18.11
2022-10-20T19:19:19.044Z,18.04
2022-10-20T19:21:48.753Z,17.89
2022-10-20T19:24:18.712Z,17.96
2022-10-20T19:26:56.847Z,17.91
2022-10-20T19:29:32.415Z,17.89
2022-10-20T19:32:02.886Z,17.84
2022-10-20T19:34:33.631Z,17.84
2022-10-20T19:37:02.891Z,17.84
2022-10-20T19:39:33.186Z,17.77
2022-10-20T19:42:03.254Z,17.83
2022-10-20T19:44:33.872Z,17.79
2022-10-20T19:47:03.020Z,17.84
2022-10-20T19:49:32.086Z,17.82
2022-10-20T19:52:00.858Z,17.88
2022-10-20T19:54:29.433Z,17.78
2022-10-20T19:56:57.979Z,17.92
2022-10-20T19:59:29.129Z,17.97
2022-10-20T20:01:59.112Z,17.97
2022-10-20T20:04:29.930Z,17.98
2022-10-20T20:07:01.892Z,17.88
2022-10-20T20:09:31.506Z,17.84
2022-10-20T20:12:00.161Z,17.79
2022-10-20T20:14:28.942Z,17.88
2022-10-20T20:16:58.825Z,17.92
2022-10-20T20:19:27.317Z,17.91
2022-10-20T20:21:55.741Z,17.87
2022-10-20T20:24:24.321Z,17.95
2022-10-20T20:26:52.754Z,18.00
2022-10-20T20:29:21.198Z,18.02
2022-10-20T20:31:50.347Z,17.98
2022-10-20T20:34:20.217Z,17.94
2022-10-20T20:36:48.651Z,17.99
2022-10-20T20:39:17.193Z,17.86
2022-10-20T20:41:45.675Z,17.92
2022-10-20T20:44:14.563Z,17.89
2022-10-20T20:46:43.192Z,17.87
2022-10-20T20:49:11.749Z,17.88
2022-10-20T20:51:41.543Z,17.96
2022-10-20T20:54:11.164Z,17.93
2022-10-20T20:56:39.611Z,17.86
2022-10-20T20:59:08.106Z,17.81
2022-10-20T21:01:36.636Z,17.80
2022-10-20T21:04:10.241Z,17.74
2022-10-20T21:07:01.671Z,17.78
2022-10-20T21:09:33.864Z,17.66
2022-10-20T21:12:04.689Z,17.67
2022-10-20T21:14:34.814Z,17.60
2022-10-20T21:17:03.242Z,17.62
2022-10-20T21:19:31.727Z,17.64
2022-10-20T21:22:01.838Z,17.75
2022-10-20T21:24:30.276Z,17.78
2022-10-20T21:26:58.750Z,17.87
2022-10-20T21:29:27.180Z,17.78
2022-10-20T21:31:56.244Z,17.82
2022-10-20T21:34:26.054Z,17.81
2022-10-20T21:36:54.471Z,17.85
2022-10-20T21:39:24.361Z,17.83
2022-10-20T21:41:53.013Z,17.90
2022-10-20T21:44:24.473Z,17.89
2022-10-20T21:46:55.958Z,17.93
2022-10-20T21:49:26.044Z,17.92
2022-10-20T21:51:59.499Z,17.98
2022-10-20T21:54:30.522Z,17.97
2022-10-20T21:56:59.529Z,17.94
2022-10-20T21:59:30.567Z,17.92
2022-10-20T22:02:00.053Z,18.03
2022-10-20T22:04:30.298Z,17.96
2022-10-20T22:07:03.456Z,17.96
2022-10-20T22:09:33.572Z,17.86
2022-10-20T22:12:02.146Z,17.84
2022-10-20T22:14:30.965Z,17.77
2022-10-20T22:16:59.402Z,17.74
2022-10-20T22:19:27.825Z,17.78
2022-10-20T22:22:04.220Z,17.69
2022-10-20T22:24:48.377Z,17.16
2022-10-20T22:27:31.472Z,17.52
2022-10-20T22:30:11.438Z,17.69
2022-10-20T22:32:40.255Z,17.71
2022-10-20T22:35:10.197Z,17.66
2022-10-20T22:37:38.644Z,17.74
2022-10-20T22:40:10.351Z,17.80
2022-10-20T22:42:39.260Z,17.86
2022-10-20T22:45:09.312Z,17.91
2022-10-20T22:47:38.016Z,17.86
2022-10-20T22:50:07.594Z,17.81
2022-10-20T22:52:36.445Z,17.79
2022-10-20T22:55:05.933Z,17.76
2022-10-20T22:57:36.025Z,17.81
2022-10-20T23:00:06.079Z,17.85
2022-10-20T23:02:35.236Z,17.89
2022-10-20T23:05:03.919Z,17.81
2022-10-20T23:07:32.697Z,17.85
2022-10-20T23:10:03.741Z,17.81
2022-10-20T23:12:32.885Z,17.80
2022-10-20T23:15:03.089Z,17.92
2022-10-20T23:17:31.917Z,17.88
2022-10-20T23:20:00.551Z,17.90
2022-10-20T23:22:28.942Z,17.79
2022-10-20T23:24:57.394Z,17.73
2022-10-20T23:27:25.973Z,17.61
2022-10-20T23:29:54.795Z,17.62
2022-10-20T23:32:24.597Z,17.53
2022-10-20T23:34:53.058Z,17.43
2022-10-20T23:37:23.738Z,17.40
2022-10-20T23:39:52.210Z,17.37
2022-10-20T23:42:20.655Z,17.27
2022-10-20T23:44:49.062Z,17.19
2022-10-20T23:47:17.525Z,17.12
2022-10-20T23:49:47.438Z,17.05
2022-10-20T23:52:16.225Z,16.99
2022-10-20T23:54:45.100Z,17.00
2022-10-20T23:57:13.697Z,16.97
2022-10-20T23:59:42.103Z,17.02
